Terminal Aerodrome Forecast
Issued by NWS

Home | Current Version | Previous Version | Text Only | Print | Product List | Glossary Off
Versions: 1 2 3 4 5 6 7 8 9 10 11 12 13 14 15

000
FTUS43 KGRB 030500
TAFATW
TAF
KATW 030520Z 0306/0406 20006KT P6SM SCT250
     FM031500 21015G24KT P6SM SCT060
     FM040200 22007KT P6SM BKN090=

USA.gov is the U.S. government's official web portal to all federal, state and local government web resources and services.